Terminal Aerodrome Forecast
Issued by NWS

Home | Current Version | Previous Version | Text Only | Print | Product List | Glossary On
Versions: 1 2 3 4 5 6 7 8 9 10 11 12 13 14
000
FTUS46 KOTX 291725
TAFSFF
TAF
KSFF 291725Z 2918/3018 VRB03KT P6SM SCT120 BKN250
     FM292100 24007G11KT P6SM FEW120 SCT250
     FM300300 VRB03KT P6SM FEW250
     FM301400 VRB04KT P6SM FEW100 SCT150 BKN200=

USA.gov is the U.S. government's official web portal to all federal, state and local government web resources and services.